sensor_id;sensor_type;location;lat;lon;timestamp;pressure;altitude;pressure_sealevel;temperature;humidity
74524;BME280;63074;44.696;10.358;2023-11-18T00:01:33;100354.09;;;15.00;42.67
74524;BME280;63074;44.696;10.358;2023-11-18T00:04:00;100361.47;;;14.56;43.09
74524;BME280;63074;44.696;10.358;2023-11-18T00:06:26;100367.19;;;14.59;43.33
74524;BME280;63074;44.696;10.358;2023-11-18T00:08:54;100369.78;;;14.49;43.72
74524;BME280;63074;44.696;10.358;2023-11-18T00:11:20;100362.13;;;14.41;43.49
74524;BME280;63074;44.696;10.358;2023-11-18T00:13:46;100362.97;;;14.25;44.26
74524;BME280;63074;44.696;10.358;2023-11-18T00:16:12;100362.34;;;15.52;42.67
74524;BME280;63074;44.696;10.358;2023-11-18T00:18:42;100357.72;;;15.15;42.77
74524;BME280;63074;44.696;10.358;2023-11-18T00:21:09;100362.00;;;14.79;43.62
74524;BME280;63074;44.696;10.358;2023-11-18T00:23:35;100361.34;;;14.94;44.25
74524;BME280;63074;44.696;10.358;2023-11-18T00:26:02;100366.75;;;14.24;45.31
74524;BME280;63074;44.696;10.358;2023-11-18T00:28:28;100368.88;;;14.00;45.92
74524;BME280;63074;44.696;10.358;2023-11-18T00:30:54;100368.19;;;14.31;45.28
74524;BME280;63074;44.696;10.358;2023-11-18T00:33:21;100370.03;;;14.04;45.17
74524;BME280;63074;44.696;10.358;2023-11-18T00:35:47;100372.09;;;14.18;44.98
74524;BME280;63074;44.696;10.358;2023-11-18T00:38:13;100365.38;;;14.65;44.28
74524;BME280;63074;44.696;10.358;2023-11-18T00:40:39;100379.66;;;14.38;44.48
74524;BME280;63074;44.696;10.358;2023-11-18T00:43:06;100384.50;;;14.36;44.74
74524;BME280;63074;44.696;10.358;2023-11-18T00:45:32;100387.94;;;14.32;44.56
74524;BME280;63074;44.696;10.358;2023-11-18T00:47:59;100386.13;;;14.59;44.29
74524;BME280;63074;44.696;10.358;2023-11-18T00:50:25;100385.66;;;14.02;45.01
74524;BME280;63074;44.696;10.358;2023-11-18T00:52:51;100388.28;;;13.97;45.43
74524;BME280;63074;44.696;10.358;2023-11-18T00:55:17;100390.25;;;14.23;45.23
74524;BME280;63074;44.696;10.358;2023-11-18T00:57:44;100388.91;;;14.91;44.05
74524;BME280;63074;44.696;10.358;2023-11-18T01:00:15;100393.53;;;15.23;43.19
74524;BME280;63074;44.696;10.358;2023-11-18T01:02:48;100398.84;;;15.12;43.17
74524;BME280;63074;44.696;10.358;2023-11-18T01:05:15;100403.75;;;15.15;43.26
74524;BME280;63074;44.696;10.358;2023-11-18T01:07:42;100407.59;;;14.66;44.01
74524;BME280;63074;44.696;10.358;2023-11-18T01:10:09;100404.47;;;14.35;44.99
74524;BME280;63074;44.696;10.358;2023-11-18T01:12:40;100398.94;;;14.25;46.06
74524;BME280;63074;44.696;10.358;2023-11-18T01:15:07;100408.28;;;13.96;47.19
74524;BME280;63074;44.696;10.358;2023-11-18T01:17:36;100411.28;;;13.99;47.74
74524;BME280;63074;44.696;10.358;2023-11-18T01:20:03;100406.41;;;14.18;47.32
74524;BME280;63074;44.696;10.358;2023-11-18T01:22:35;100399.31;;;14.12;47.24
74524;BME280;63074;44.696;10.358;2023-11-18T01:25:01;100402.44;;;14.42;46.72
74524;BME280;63074;44.696;10.358;2023-11-18T01:27:28;100409.84;;;13.92;46.84
74524;BME280;63074;44.696;10.358;2023-11-18T01:29:54;100405.97;;;14.04;47.24
74524;BME280;63074;44.696;10.358;2023-11-18T01:32:20;100408.25;;;14.12;47.14
74524;BME280;63074;44.696;10.358;2023-11-18T01:34:46;100409.50;;;14.05;48.31
74524;BME280;63074;44.696;10.358;2023-11-18T01:37:19;100414.03;;;13.32;48.45
74524;BME280;63074;44.696;10.358;2023-11-18T01:39:47;100415.28;;;13.75;47.52
74524;BME280;63074;44.696;10.358;2023-11-18T01:42:14;100413.84;;;13.89;47.54
74524;BME280;63074;44.696;10.358;2023-11-18T01:44:40;100423.69;;;13.78;47.86
74524;BME280;63074;44.696;10.358;2023-11-18T01:47:08;100424.03;;;13.82;47.87
74524;BME280;63074;44.696;10.358;2023-11-18T01:49:38;100426.06;;;13.75;47.75
74524;BME280;63074;44.696;10.358;2023-11-18T01:52:07;100417.00;;;13.47;48.18
74524;BME280;63074;44.696;10.358;2023-11-18T01:54:37;100427.53;;;13.66;48.02
74524;BME280;63074;44.696;10.358;2023-11-18T01:57:04;100429.09;;;14.17;47.25
74524;BME280;63074;44.696;10.358;2023-11-18T01:59:33;100437.59;;;14.42;46.39
74524;BME280;63074;44.696;10.358;2023-11-18T02:02:00;100433.88;;;15.24;45.58
74524;BME280;63074;44.696;10.358;2023-11-18T02:04:27;100443.78;;;15.40;45.62
74524;BME280;63074;44.696;10.358;2023-11-18T02:06:54;100443.28;;;15.16;45.12
74524;BME280;63074;44.696;10.358;2023-11-18T02:09:22;100443.47;;;15.10;45.76
74524;BME280;63074;44.696;10.358;2023-11-18T02:12:37;100443.50;;;14.61;46.08
74524;BME280;63074;44.696;10.358;2023-11-18T02:15:02;100448.81;;;13.62;47.91
74524;BME280;63074;44.696;10.358;2023-11-18T02:17:37;100457.97;;;13.95;47.69
74524;BME280;63074;44.696;10.358;2023-11-18T02:20:05;100453.28;;;14.45;47.11
74524;BME280;63074;44.696;10.358;2023-11-18T02:22:42;100449.72;;;14.62;46.82
74524;BME280;63074;44.696;10.358;2023-11-18T02:25:09;100451.78;;;13.77;47.45
74524;BME280;63074;44.696;10.358;2023-11-18T02:27:37;100444.00;;;13.47;48.60
74524;BME280;63074;44.696;10.358;2023-11-18T02:30:04;100445.47;;;13.55;48.67
74524;BME280;63074;44.696;10.358;2023-11-18T02:32:47;100456.34;;;13.77;48.77
74524;BME280;63074;44.696;10.358;2023-11-18T02:37:51;100461.91;;;13.87;47.40
74524;BME280;63074;44.696;10.358;2023-11-18T02:40:34;100469.59;;;14.12;47.41
74524;BME280;63074;44.696;10.358;2023-11-18T02:43:01;100462.06;;;14.14;47.31
74524;BME280;63074;44.696;10.358;2023-11-18T02:45:31;100460.25;;;14.03;47.86
74524;BME280;63074;44.696;10.358;2023-11-18T02:47:58;100472.88;;;13.97;48.35
74524;BME280;63074;44.696;10.358;2023-11-18T02:50:25;100473.84;;;13.91;48.35
74524;BME280;63074;44.696;10.358;2023-11-18T02:52:53;100471.72;;;13.93;48.29
74524;BME280;63074;44.696;10.358;2023-11-18T02:55:20;100474.66;;;13.41;49.36
74524;BME280;63074;44.696;10.358;2023-11-18T02:57:50;100478.53;;;13.62;48.52
74524;BME280;63074;44.696;10.358;2023-11-18T03:00:19;100478.28;;;13.47;48.33
74524;BME280;63074;44.696;10.358;2023-11-18T03:02:49;100485.56;;;13.80;48.87
74524;BME280;63074;44.696;10.358;2023-11-18T03:05:18;100481.69;;;13.59;49.39
74524;BME280;63074;44.696;10.358;2023-11-18T03:07:45;100479.44;;;13.51;49.14
74524;BME280;63074;44.696;10.358;2023-11-18T03:10:13;100479.59;;;13.78;49.20
74524;BME280;63074;44.696;10.358;2023-11-18T03:12:47;100485.63;;;14.02;49.22
74524;BME280;63074;44.696;10.358;2023-11-18T03:15:14;100494.59;;;13.85;49.20
74524;BME280;63074;44.696;10.358;2023-11-18T03:17:44;100494.81;;;14.01;49.22
74524;BME280;63074;44.696;10.358;2023-11-18T03:20:11;100515.59;;;14.00;49.18
74524;BME280;63074;44.696;10.358;2023-11-18T03:22:40;100513.47;;;13.52;50.85
74524;BME280;63074;44.696;10.358;2023-11-18T03:25:07;100507.25;;;13.51;49.82
74524;BME280;63074;44.696;10.358;2023-11-18T03:27:33;100506.19;;;13.86;49.20
74524;BME280;63074;44.696;10.358;2023-11-18T03:30:00;100494.81;;;14.01;48.95
74524;BME280;63074;44.696;10.358;2023-11-18T03:32:26;100495.31;;;13.98;49.26
74524;BME280;63074;44.696;10.358;2023-11-18T03:34:53;100506.97;;;14.20;48.88
74524;BME280;63074;44.696;10.358;2023-11-18T03:37:19;100508.88;;;14.19;48.83
74524;BME280;63074;44.696;10.358;2023-11-18T03:39:49;100502.75;;;14.07;48.65
74524;BME280;63074;44.696;10.358;2023-11-18T03:42:15;100510.91;;;14.29;48.00
74524;BME280;63074;44.696;10.358;2023-11-18T03:44:41;100515.06;;;14.37;47.90
74524;BME280;63074;44.696;10.358;2023-11-18T03:47:07;100516.88;;;14.31;47.71
74524;BME280;63074;44.696;10.358;2023-11-18T03:49:34;100516.06;;;14.31;48.56
74524;BME280;63074;44.696;10.358;2023-11-18T03:52:00;100517.63;;;14.27;48.21
74524;BME280;63074;44.696;10.358;2023-11-18T03:54:26;100520.47;;;13.36;49.68
74524;BME280;63074;44.696;10.358;2023-11-18T03:56:53;100516.34;;;14.12;49.28
74524;BME280;63074;44.696;10.358;2023-11-18T03:59:19;100527.00;;;13.24;50.06
74524;BME280;63074;44.696;10.358;2023-11-18T04:01:46;100515.75;;;13.03;51.35
74524;BME280;63074;44.696;10.358;2023-11-18T04:04:14;100519.47;;;13.14;52.19
74524;BME280;63074;44.696;10.358;2023-11-18T04:06:43;100511.78;;;12.54;54.02
74524;BME280;63074;44.696;10.358;2023-11-18T04:09:09;100517.00;;;12.84;54.62
74524;BME280;63074;44.696;10.358;2023-11-18T04:11:36;100517.47;;;12.81;54.05
74524;BME280;63074;44.696;10.358;2023-11-18T04:14:02;100524.03;;;13.54;53.27
74524;BME280;63074;44.696;10.358;2023-11-18T04:16:31;100516.88;;;12.91;53.44
74524;BME280;63074;44.696;10.358;2023-11-18T04:18:57;100521.31;;;12.33;55.93
74524;BME280;63074;44.696;10.358;2023-11-18T04:21:24;100521.69;;;12.77;53.90
74524;BME280;63074;44.696;10.358;2023-11-18T04:23:50;100525.00;;;13.19;51.71
74524;BME280;63074;44.696;10.358;2023-11-18T04:26:16;100521.03;;;12.58;52.65
74524;BME280;63074;44.696;10.358;2023-11-18T04:28:42;100514.75;;;12.41;53.83
74524;BME280;63074;44.696;10.358;2023-11-18T04:31:08;100526.03;;;12.78;52.45
74524;BME280;63074;44.696;10.358;2023-11-18T04:33:34;100522.81;;;12.52;52.72
74524;BME280;63074;44.696;10.358;2023-11-18T04:36:01;100523.69;;;12.81;52.03
74524;BME280;63074;44.696;10.358;2023-11-18T04:38:27;100526.44;;;12.58;53.02
74524;BME280;63074;44.696;10.358;2023-11-18T04:40:54;100530.19;;;12.69;52.49
74524;BME280;63074;44.696;10.358;2023-11-18T04:43:21;100536.28;;;13.04;51.93
74524;BME280;63074;44.696;10.358;2023-11-18T04:45:51;100541.34;;;13.41;51.28
74524;BME280;63074;44.696;10.358;2023-11-18T04:48:18;100544.56;;;13.71;51.09
74524;BME280;63074;44.696;10.358;2023-11-18T04:50:47;100542.50;;;13.62;50.59
74524;BME280;63074;44.696;10.358;2023-11-18T04:53:13;100545.59;;;12.85;52.17
74524;BME280;63074;44.696;10.358;2023-11-18T04:55:40;100547.16;;;13.49;50.87
74524;BME280;63074;44.696;10.358;2023-11-18T04:58:06;100550.50;;;13.40;51.51
74524;BME280;63074;44.696;10.358;2023-11-18T05:00:33;100551.09;;;13.59;51.46
74524;BME280;63074;44.696;10.358;2023-11-18T05:02:59;100545.00;;;13.35;51.57
74524;BME280;63074;44.696;10.358;2023-11-18T05:05:25;100537.09;;;13.45;51.40
74524;BME280;63074;44.696;10.358;2023-11-18T05:07:52;100538.09;;;13.89;51.59
74524;BME280;63074;44.696;10.358;2023-11-18T05:10:18;100542.66;;;12.98;53.09
74524;BME280;63074;44.696;10.358;2023-11-18T05:12:44;100534.50;;;13.10;53.29
74524;BME280;63074;44.696;10.358;2023-11-18T05:15:10;100535.78;;;13.47;51.95
74524;BME280;63074;44.696;10.358;2023-11-18T05:17:38;100532.41;;;13.00;52.87
74524;BME280;63074;44.696;10.358;2023-11-18T05:20:05;100537.44;;;13.08;52.37
74524;BME280;63074;44.696;10.358;2023-11-18T05:22:35;100540.63;;;13.05;52.72
74524;BME280;63074;44.696;10.358;2023-11-18T05:25:03;100535.31;;;13.10;52.63
74524;BME280;63074;44.696;10.358;2023-11-18T05:27:31;100522.84;;;12.93;52.48
74524;BME280;63074;44.696;10.358;2023-11-18T05:29:57;100528.13;;;12.88;53.50
74524;BME280;63074;44.696;10.358;2023-11-18T05:32:28;100531.31;;;13.25;52.73
74524;BME280;63074;44.696;10.358;2023-11-18T05:34:54;100529.91;;;12.82;53.94
74524;BME280;63074;44.696;10.358;2023-11-18T05:37:22;100534.44;;;12.93;54.43
74524;BME280;63074;44.696;10.358;2023-11-18T05:39:48;100536.75;;;12.61;55.00
74524;BME280;63074;44.696;10.358;2023-11-18T05:42:19;100534.09;;;12.38;55.36
74524;BME280;63074;44.696;10.358;2023-11-18T05:44:45;100532.28;;;12.43;55.35
74524;BME280;63074;44.696;10.358;2023-11-18T05:47:11;100536.38;;;12.69;54.41
74524;BME280;63074;44.696;10.358;2023-11-18T05:49:39;100540.22;;;12.85;54.16
74524;BME280;63074;44.696;10.358;2023-11-18T05:52:05;100538.25;;;12.69;53.98
74524;BME280;63074;44.696;10.358;2023-11-18T05:54:33;100548.81;;;12.59;54.61
74524;BME280;63074;44.696;10.358;2023-11-18T05:56:59;100546.13;;;12.59;54.56
74524;BME280;63074;44.696;10.358;2023-11-18T05:59:26;100548.22;;;13.08;53.63
74524;BME280;63074;44.696;10.358;2023-11-18T06:01:53;100551.63;;;12.64;53.70
74524;BME280;63074;44.696;10.358;2023-11-18T06:04:19;100549.34;;;12.84;54.61
74524;BME280;63074;44.696;10.358;2023-11-18T06:06:46;100550.06;;;12.79;54.06
74524;BME280;63074;44.696;10.358;2023-11-18T06:09:13;100558.69;;;13.16;53.68
74524;BME280;63074;44.696;10.358;2023-11-18T06:11:47;100559.13;;;12.62;54.34
74524;BME280;63074;44.696;10.358;2023-11-18T06:14:13;100557.78;;;12.99;54.10
74524;BME280;63074;44.696;10.358;2023-11-18T06:16:40;100565.59;;;12.61;55.21
74524;BME280;63074;44.696;10.358;2023-11-18T06:19:07;100566.28;;;12.44;55.13
74524;BME280;63074;44.696;10.358;2023-11-18T06:21:33;100573.44;;;12.39;55.33
74524;BME280;63074;44.696;10.358;2023-11-18T06:24:02;100580.13;;;12.36;55.96
74524;BME280;63074;44.696;10.358;2023-11-18T06:26:32;100578.41;;;11.77;57.12
74524;BME280;63074;44.696;10.358;2023-11-18T06:29:02;100583.59;;;12.02;56.57
74524;BME280;63074;44.696;10.358;2023-11-18T06:31:30;100586.19;;;12.20;56.22
74524;BME280;63074;44.696;10.358;2023-11-18T06:33:56;100582.81;;;12.25;56.57
74524;BME280;63074;44.696;10.358;2023-11-18T06:36:23;100584.38;;;11.91;57.83
74524;BME280;63074;44.696;10.358;2023-11-18T06:38:52;100581.03;;;12.18;57.94
74524;BME280;63074;44.696;10.358;2023-11-18T06:41:20;100583.50;;;12.20;58.15
74524;BME280;63074;44.696;10.358;2023-11-18T06:43:49;100585.81;;;11.93;58.72
74524;BME280;63074;44.696;10.358;2023-11-18T06:46:15;100595.31;;;12.19;59.59
74524;BME280;63074;44.696;10.358;2023-11-18T06:48:42;100601.78;;;12.30;57.77
74524;BME280;63074;44.696;10.358;2023-11-18T06:51:08;100591.22;;;12.87;55.43
74524;BME280;63074;44.696;10.358;2023-11-18T06:53:35;100598.25;;;12.76;55.56
74524;BME280;63074;44.696;10.358;2023-11-18T06:56:01;100608.22;;;12.87;54.69
74524;BME280;63074;44.696;10.358;2023-11-18T06:58:27;100611.00;;;13.56;53.65
74524;BME280;63074;44.696;10.358;2023-11-18T07:00:53;100612.72;;;14.07;52.89
74524;BME280;63074;44.696;10.358;2023-11-18T07:03:19;100618.22;;;14.29;53.63
74524;BME280;63074;44.696;10.358;2023-11-18T07:05:47;100628.31;;;13.43;55.34
74524;BME280;63074;44.696;10.358;2023-11-18T07:08:14;100627.09;;;13.79;55.34
74524;BME280;63074;44.696;10.358;2023-11-18T07:10:41;100623.81;;;13.77;54.59
74524;BME280;63074;44.696;10.358;2023-11-18T07:13:07;100632.47;;;12.17;58.47
74524;BME280;63074;44.696;10.358;2023-11-18T07:15:35;100628.84;;;13.16;58.82
74524;BME280;63074;44.696;10.358;2023-11-18T07:18:02;100630.84;;;13.21;55.42
74524;BME280;63074;44.696;10.358;2023-11-18T07:20:28;100642.25;;;13.80;55.80
74524;BME280;63074;44.696;10.358;2023-11-18T07:22:54;100644.72;;;13.98;53.19
74524;BME280;63074;44.696;10.358;2023-11-18T07:25:20;100653.94;;;13.05;55.64
74524;BME280;63074;44.696;10.358;2023-11-18T07:27:47;100658.34;;;13.46;54.51
74524;BME280;63074;44.696;10.358;2023-11-18T07:30:13;100659.59;;;14.12;54.21
74524;BME280;63074;44.696;10.358;2023-11-18T07:32:40;100665.44;;;14.55;53.58
74524;BME280;63074;44.696;10.358;2023-11-18T07:35:06;100676.06;;;14.95;52.61
74524;BME280;63074;44.696;10.358;2023-11-18T07:37:35;100680.78;;;13.75;54.22
74524;BME280;63074;44.696;10.358;2023-11-18T07:40:04;100680.44;;;14.00;54.36
74524;BME280;63074;44.696;10.358;2023-11-18T07:42:31;100681.84;;;14.19;54.67
74524;BME280;63074;44.696;10.358;2023-11-18T07:45:01;100675.00;;;14.96;53.94
74524;BME280;63074;44.696;10.358;2023-11-18T07:47:30;100673.44;;;15.22;52.54
74524;BME280;63074;44.696;10.358;2023-11-18T07:50:00;100679.03;;;15.37;52.20
74524;BME280;63074;44.696;10.358;2023-11-18T07:52:30;100685.75;;;15.51;52.15
74524;BME280;63074;44.696;10.358;2023-11-18T07:54:56;100687.63;;;15.50;51.59
74524;BME280;63074;44.696;10.358;2023-11-18T07:57:22;100685.56;;;14.80;53.60
74524;BME280;63074;44.696;10.358;2023-11-18T07:59:53;100689.47;;;14.68;54.68
74524;BME280;63074;44.696;10.358;2023-11-18T08:02:19;100694.13;;;14.56;56.79
74524;BME280;63074;44.696;10.358;2023-11-18T08:04:46;100692.50;;;15.10;54.41
74524;BME280;63074;44.696;10.358;2023-11-18T08:07:12;100692.59;;;15.37;54.22
74524;BME280;63074;44.696;10.358;2023-11-18T08:09:39;100692.91;;;14.63;56.61
74524;BME280;63074;44.696;10.358;2023-11-18T08:12:06;100688.00;;;15.37;56.10
74524;BME280;63074;44.696;10.358;2023-11-18T08:14:35;100685.81;;;14.79;58.12
74524;BME280;63074;44.696;10.358;2023-11-18T08:17:01;100692.16;;;15.23;57.06
74524;BME280;63074;44.696;10.358;2023-11-18T08:19:27;100706.28;;;15.69;56.77
74524;BME280;63074;44.696;10.358;2023-11-18T08:21:54;100711.63;;;16.39;56.18
74524;BME280;63074;44.696;10.358;2023-11-18T08:24:20;100720.66;;;16.45;55.19
74524;BME280;63074;44.696;10.358;2023-11-18T08:26:47;100717.75;;;16.57;55.22
74524;BME280;63074;44.696;10.358;2023-11-18T08:29:13;100710.72;;;16.29;54.04
74524;BME280;63074;44.696;10.358;2023-11-18T08:31:40;100717.66;;;16.46;54.44
74524;BME280;63074;44.696;10.358;2023-11-18T08:34:06;100719.78;;;16.39;54.71
74524;BME280;63074;44.696;10.358;2023-11-18T08:36:32;100717.50;;;16.58;53.55
74524;BME280;63074;44.696;10.358;2023-11-18T08:39:00;100711.00;;;15.78;54.97
74524;BME280;63074;44.696;10.358;2023-11-18T08:41:26;100718.44;;;16.69;53.47
74524;BME280;63074;44.696;10.358;2023-11-18T08:43:52;100717.91;;;17.14;53.10
74524;BME280;63074;44.696;10.358;2023-11-18T08:46:19;100722.34;;;16.24;55.32
74524;BME280;63074;44.696;10.358;2023-11-18T08:48:45;100724.97;;;16.46;54.96
74524;BME280;63074;44.696;10.358;2023-11-18T08:51:13;100715.84;;;16.89;55.17
74524;BME280;63074;44.696;10.358;2023-11-18T08:53:42;100717.19;;;17.34;54.37
74524;BME280;63074;44.696;10.358;2023-11-18T08:56:09;100723.66;;;17.17;53.93
74524;BME280;63074;44.696;10.358;2023-11-18T08:58:45;100727.88;;;17.45;53.54
74524;BME280;63074;44.696;10.358;2023-11-18T09:01:11;100737.69;;;17.51;52.74
74524;BME280;63074;44.696;10.358;2023-11-18T09:03:41;100739.72;;;16.87;54.84
74524;BME280;63074;44.696;10.358;2023-11-18T09:06:18;100735.56;;;17.59;55.32
74524;BME280;63074;44.696;10.358;2023-11-18T09:08:45;100738.38;;;17.27;53.29
74524;BME280;63074;44.696;10.358;2023-11-18T09:11:14;100735.59;;;17.69;54.07
74524;BME280;63074;44.696;10.358;2023-11-18T09:13:47;100741.84;;;17.17;56.78
74524;BME280;63074;44.696;10.358;2023-11-18T09:16:15;100732.59;;;17.18;56.20
74524;BME280;63074;44.696;10.358;2023-11-18T09:18:43;100738.63;;;15.37;57.15
74524;BME280;63074;44.696;10.358;2023-11-18T09:21:13;100746.31;;;15.83;56.03
74524;BME280;63074;44.696;10.358;2023-11-18T09:23:45;100748.06;;;15.73;56.12
74524;BME280;63074;44.696;10.358;2023-11-18T09:26:14;100739.66;;;16.50;55.38
74524;BME280;63074;44.696;10.358;2023-11-18T09:28:40;100724.81;;;17.32;53.89
74524;BME280;63074;44.696;10.358;2023-11-18T09:31:07;100723.72;;;17.28;56.59
74524;BME280;63074;44.696;10.358;2023-11-18T09:33:39;100723.75;;;17.38;51.79
74524;BME280;63074;44.696;10.358;2023-11-18T09:36:11;100717.56;;;18.30;50.34
74524;BME280;63074;44.696;10.358;2023-11-18T09:38:41;100715.59;;;18.00;47.94
74524;BME280;63074;44.696;10.358;2023-11-18T09:41:09;100717.94;;;17.71;46.67
74524;BME280;63074;44.696;10.358;2023-11-18T09:43:43;100720.13;;;17.74;45.84
74524;BME280;63074;44.696;10.358;2023-11-18T09:46:14;100727.09;;;18.38;45.61
74524;BME280;63074;44.696;10.358;2023-11-18T09:48:45;100738.47;;;18.19;44.19
74524;BME280;63074;44.696;10.358;2023-11-18T09:51:29;100738.16;;;18.01;44.55
74524;BME280;63074;44.696;10.358;2023-11-18T09:54:05;100739.56;;;18.23;44.07
74524;BME280;63074;44.696;10.358;2023-11-18T09:57:04;100742.56;;;18.22;45.83
74524;BME280;63074;44.696;10.358;2023-11-18T10:02:25;100750.63;;;17.92;43.78
74524;BME280;63074;44.696;10.358;2023-11-18T10:04:53;100750.25;;;18.81;42.79
74524;BME280;63074;44.696;10.358;2023-11-18T10:07:26;100748.03;;;18.52;43.88
74524;BME280;63074;44.696;10.358;2023-11-18T10:09:55;100748.38;;;18.61;42.21
74524;BME280;63074;44.696;10.358;2023-11-18T10:12:24;100739.63;;;18.44;43.09
74524;BME280;63074;44.696;10.358;2023-11-18T10:14:52;100740.47;;;18.60;41.31
74524;BME280;63074;44.696;10.358;2023-11-18T10:17:19;100729.81;;;18.48;42.08
74524;BME280;63074;44.696;10.358;2023-11-18T10:19:58;100731.16;;;18.15;41.49
74524;BME280;63074;44.696;10.358;2023-11-18T10:22:38;100727.66;;;18.96;41.43
74524;BME280;63074;44.696;10.358;2023-11-18T10:25:04;100717.53;;;19.21;42.05
74524;BME280;63074;44.696;10.358;2023-11-18T10:27:32;100711.00;;;19.12;41.91
74524;BME280;63074;44.696;10.358;2023-11-18T10:30:06;100699.88;;;18.48;39.44
74524;BME280;63074;44.696;10.358;2023-11-18T10:33:00;100702.34;;;18.90;39.12
74524;BME280;63074;44.696;10.358;2023-11-18T10:35:35;100697.63;;;19.21;39.57
74524;BME280;63074;44.696;10.358;2023-11-18T10:38:03;100705.06;;;18.80;38.42
74524;BME280;63074;44.696;10.358;2023-11-18T10:40:33;100706.41;;;18.82;39.20
74524;BME280;63074;44.696;10.358;2023-11-18T10:43:02;100704.50;;;18.98;38.60
74524;BME280;63074;44.696;10.358;2023-11-18T10:45:31;100700.72;;;18.43;39.30
74524;BME280;63074;44.696;10.358;2023-11-18T10:47:58;100706.81;;;15.93;41.81
74524;BME280;63074;44.696;10.358;2023-11-18T10:50:24;100701.38;;;16.14;41.80
74524;BME280;63074;44.696;10.358;2023-11-18T10:52:59;100699.22;;;16.16;43.86
74524;BME280;63074;44.696;10.358;2023-11-18T10:55:36;100691.72;;;19.73;40.05
74524;BME280;63074;44.696;10.358;2023-11-18T10:58:03;100698.06;;;20.13;38.73
74524;BME280;63074;44.696;10.358;2023-11-18T11:00:49;100684.38;;;20.18;37.61
74524;BME280;63074;44.696;10.358;2023-11-18T11:03:19;100681.75;;;19.53;37.58
74524;BME280;63074;44.696;10.358;2023-11-18T11:05:45;100686.66;;;20.01;38.64
74524;BME280;63074;44.696;10.358;2023-11-18T11:08:15;100688.31;;;20.02;37.03
74524;BME280;63074;44.696;10.358;2023-11-18T11:10:44;100688.53;;;20.49;38.07
74524;BME280;63074;44.696;10.358;2023-11-18T11:13:11;100687.84;;;19.89;37.48
74524;BME280;63074;44.696;10.358;2023-11-18T11:15:41;100692.25;;;19.80;37.48
74524;BME280;63074;44.696;10.358;2023-11-18T11:18:12;100702.75;;;20.02;37.27
74524;BME280;63074;44.696;10.358;2023-11-18T11:20:42;100697.63;;;20.40;38.26
74524;BME280;63074;44.696;10.358;2023-11-18T11:23:21;100698.78;;;19.84;35.47
74524;BME280;63074;44.696;10.358;2023-11-18T11:26:02;100706.28;;;20.08;35.86
74524;BME280;63074;44.696;10.358;2023-11-18T11:31:30;100700.66;;;20.96;36.72
74524;BME280;63074;44.696;10.358;2023-11-18T11:34:15;100690.81;;;20.71;36.76
74524;BME280;63074;44.696;10.358;2023-11-18T11:36:46;100685.81;;;21.55;36.31
74524;BME280;63074;44.696;10.358;2023-11-18T11:39:17;100692.84;;;22.04;35.94
74524;BME280;63074;44.696;10.358;2023-11-18T11:41:45;100689.47;;;21.88;36.54
74524;BME280;63074;44.696;10.358;2023-11-18T11:44:15;100684.06;;;21.83;35.78
74524;BME280;63074;44.696;10.358;2023-11-18T11:46:41;100680.34;;;21.55;37.33
74524;BME280;63074;44.696;10.358;2023-11-18T11:49:10;100676.09;;;22.24;36.69
74524;BME280;63074;44.696;10.358;2023-11-18T11:57:58;100690.91;;;22.55;34.48
74524;BME280;63074;44.696;10.358;2023-11-18T12:00:26;100689.78;;;23.35;33.95
74524;BME280;63074;44.696;10.358;2023-11-18T12:03:01;100680.84;;;23.57;35.28
74524;BME280;63074;44.696;10.358;2023-11-18T12:05:31;100699.78;;;33.73;26.28
74524;BME280;63074;44.696;10.358;2023-11-18T12:07:59;100698.41;;;32.87;24.01
74524;BME280;63074;44.696;10.358;2023-11-18T12:10:32;100721.69;;;38.67;20.24
74524;BME280;63074;44.696;10.358;2023-11-18T12:13:16;100702.66;;;35.65;21.46
74524;BME280;63074;44.696;10.358;2023-11-18T12:15:51;100697.94;;;31.89;23.49
74524;BME280;63074;44.696;10.358;2023-11-18T12:18:23;100695.13;;;30.47;24.96
74524;BME280;63074;44.696;10.358;2023-11-18T12:20:50;100692.97;;;31.63;23.97
74524;BME280;63074;44.696;10.358;2023-11-18T12:23:28;100705.63;;;37.30;20.00
74524;BME280;63074;44.696;10.358;2023-11-18T12:25:57;100709.13;;;35.73;19.97
74524;BME280;63074;44.696;10.358;2023-11-18T12:28:30;100696.28;;;36.41;19.96
74524;BME280;63074;44.696;10.358;2023-11-18T12:30:57;100695.41;;;35.53;19.72
74524;BME280;63074;44.696;10.358;2023-11-18T12:33:24;100702.19;;;40.21;17.97
74524;BME280;63074;44.696;10.358;2023-11-18T12:41:40;100698.78;;;40.94;17.10
74524;BME280;63074;44.696;10.358;2023-11-18T12:44:30;100692.84;;;41.35;16.58
74524;BME280;63074;44.696;10.358;2023-11-18T12:47:02;100690.88;;;39.94;17.73
74524;BME280;63074;44.696;10.358;2023-11-18T12:49:48;100684.78;;;43.53;16.36
74524;BME280;63074;44.696;10.358;2023-11-18T12:52:21;100679.03;;;42.23;16.62
74524;BME280;63074;44.696;10.358;2023-11-18T12:54:48;100685.69;;;43.18;15.72
74524;BME280;63074;44.696;10.358;2023-11-18T12:57:21;100675.13;;;41.97;16.13
74524;BME280;63074;44.696;10.358;2023-11-18T12:59:50;100670.34;;;41.55;16.53
74524;BME280;63074;44.696;10.358;2023-11-18T13:02:17;100666.00;;;41.90;15.76
74524;BME280;63074;44.696;10.358;2023-11-18T13:04:46;100662.31;;;41.93;16.65
74524;BME280;63074;44.696;10.358;2023-11-18T13:07:21;100667.16;;;43.17;16.09
74524;BME280;63074;44.696;10.358;2023-11-18T13:09:48;100658.22;;;40.61;16.46